UAL406 PHNL-KDEN
Flight info
| Callsign | UAL406 |
|---|---|
| Flight time | 5h 39m |
| Altitude | 35000 |
| Route | MKK5 CODDY EBBER R577 ERROT/N0477F370 R577 ETECO DINTY C1176 RZS PMD DAG/N0484F390 KL36M DICEE BUMMP SSKII4 |
| Aircraft | B77W/H-SDE1E2E3FGHIJ2J3J4J5M1RWXY/LB1D1 |
Departure
| Time | 2026-05-05 18:56 |
|---|---|
| Airport | Daniel K. Inouye International Airport (PHNL) |
Arrival
| Time | 2026-05-06 00:35 |
|---|---|
| Airport | Denver International Airport (KDEN) |
| Time | Latitude | Longitude | Altitude | Speed | Heading |
|---|---|---|---|---|---|
| 2026-05-05 18:24 | 21.32871 | -157.91571 | 29 ft | 0 kts | 360° |
| 2026-05-05 18:43 | 21.32854 | -157.91571 | 27 ft | 4 kts | 360° |
| 2026-05-05 18:44 | 21.32830 | -157.91571 | 28 ft | 2 kts | 0° |
| 2026-05-05 18:44 | 21.32805 | -157.91569 | 28 ft | 4 kts | 341° |
| 2026-05-05 18:44 | 21.32783 | -157.91555 | 27 ft | 4 kts | 308° |
| 2026-05-05 18:44 | 21.32773 | -157.91531 | 26 ft | 3 kts | 270° |
| 2026-05-05 18:45 | 21.32773 | -157.91503 | 29 ft | 4 kts | 270° |
| 2026-05-05 18:45 | 21.32773 | -157.91493 | 29 ft | 0 kts | 270° |
| 2026-05-05 18:49 | 21.32773 | -157.91524 | 29 ft | 11 kts | 270° |
| 2026-05-05 18:49 | 21.32773 | -157.91630 | 29 ft | 15 kts | 270° |
| 2026-05-05 18:50 | 21.32774 | -157.91738 | 29 ft | 14 kts | 270° |
| 2026-05-05 18:50 | 21.32774 | -157.91839 | 29 ft | 13 kts | 269° |
| 2026-05-05 18:50 | 21.32773 | -157.91939 | 29 ft | 13 kts | 270° |
| 2026-05-05 18:50 | 21.32773 | -157.92039 | 29 ft | 13 kts | 269° |
| 2026-05-05 18:51 | 21.32772 | -157.92138 | 29 ft | 13 kts | 269° |
| 2026-05-05 18:51 | 21.32773 | -157.92238 | 29 ft | 13 kts | 272° |
| 2026-05-05 18:51 | 21.32775 | -157.92338 | 29 ft | 13 kts | 270° |
| 2026-05-05 18:51 | 21.32775 | -157.92445 | 29 ft | 16 kts | 270° |
| 2026-05-05 18:52 | 21.32773 | -157.92570 | 29 ft | 23 kts | 270° |
| 2026-05-05 18:52 | 21.32762 | -157.92769 | 29 ft | 27 kts | 256° |
| 2026-05-05 18:52 | 21.32741 | -157.92965 | 29 ft | 26 kts | 270° |
| 2026-05-05 18:52 | 21.32743 | -157.93156 | 29 ft | 26 kts | 270° |
| 2026-05-05 18:53 | 21.32740 | -157.93344 | 29 ft | 26 kts | 271° |
| 2026-05-05 18:53 | 21.32742 | -157.93535 | 29 ft | 26 kts | 270° |
| 2026-05-05 18:53 | 21.32741 | -157.93726 | 29 ft | 26 kts | 270° |
| 2026-05-05 18:53 | 21.32742 | -157.93917 | 29 ft | 26 kts | 270° |
| 2026-05-05 18:54 | 21.32716 | -157.94058 | 29 ft | 15 kts | 235° |
| 2026-05-05 18:54 | 21.32645 | -157.94119 | 29 ft | 8 kts | 211° |
| 2026-05-05 18:54 | 21.32594 | -157.94151 | 29 ft | 9 kts | 209° |
| 2026-05-05 18:54 | 21.32564 | -157.94163 | 29 ft | 1 kts | 185° |
| 2026-05-05 18:55 | 21.32552 | -157.94159 | 29 ft | 5 kts | 155° |
| 2026-05-05 18:55 | 21.32532 | -157.94116 | 29 ft | 8 kts | 98° |
| 2026-05-05 18:55 | 21.32530 | -157.94076 | 29 ft | 1 kts | 91° |
| 2026-05-05 18:55 | 21.32528 | -157.94004 | 29 ft | 39 kts | 91° |
| 2026-05-05 18:56 | 21.32527 | -157.93418 | 29 ft | 116 kts | 90° |
| 2026-05-05 18:56 | 21.32526 | -157.92313 | 31 ft | 177 kts | 90° |
| 2026-05-05 18:56 | 21.32528 | -157.90895 | 409 ft | 193 kts | 90° |
| 2026-05-05 18:56 | 21.32513 | -157.89452 | 1127 ft | 195 kts | 90° |
| 2026-05-05 18:57 | 21.32433 | -157.88005 | 1826 ft | 195 kts | 102° |
| 2026-05-05 18:57 | 21.31923 | -157.86663 | 2525 ft | 195 kts | 122° |
| 2026-05-05 18:57 | 21.31166 | -157.85455 | 3208 ft | 197 kts | 125° |
| 2026-05-05 18:57 | 21.30377 | -157.84231 | 3769 ft | 202 kts | 126° |
| 2026-05-05 18:58 | 21.29556 | -157.82990 | 4364 ft | 205 kts | 126° |
| 2026-05-05 18:58 | 21.28751 | -157.81706 | 4880 ft | 213 kts | 124° |
| 2026-05-05 18:58 | 21.27898 | -157.80321 | 5206 ft | 234 kts | 124° |
| 2026-05-05 18:58 | 21.26963 | -157.78792 | 5522 ft | 255 kts | 124° |
| 2026-05-05 18:59 | 21.25963 | -157.77151 | 6017 ft | 268 kts | 124° |
| 2026-05-05 18:59 | 21.24938 | -157.75454 | 6684 ft | 274 kts | 124° |
| 2026-05-05 18:59 | 21.23895 | -157.73719 | 7329 ft | 280 kts | 124° |
| 2026-05-05 18:59 | 21.22839 | -157.71970 | 8034 ft | 283 kts | 124° |
| 2026-05-05 19:00 | 21.21757 | -157.70191 | 8697 ft | 287 kts | 124° |
| 2026-05-05 19:00 | 21.20651 | -157.68387 | 9358 ft | 292 kts | 124° |
| 2026-05-05 19:00 | 21.19683 | -157.66469 | 9896 ft | 298 kts | 106° |
| 2026-05-05 19:00 | 21.19371 | -157.64266 | 9983 ft | 303 kts | 94° |
| 2026-05-05 19:01 | 21.19225 | -157.62012 | 10467 ft | 305 kts | 95° |
| 2026-05-05 19:01 | 21.19048 | -157.59745 | 11354 ft | 305 kts | 95° |
| 2026-05-05 19:01 | 21.18837 | -157.57464 | 12101 ft | 313 kts | 96° |
| 2026-05-05 19:01 | 21.18586 | -157.55053 | 12342 ft | 339 kts | 97° |
| 2026-05-05 19:02 | 21.18292 | -157.52447 | 12555 ft | 365 kts | 97° |
| 2026-05-05 19:02 | 21.17960 | -157.49660 | 12802 ft | 387 kts | 97° |
| 2026-05-05 19:02 | 21.17605 | -157.46764 | 13386 ft | 399 kts | 98° |
| 2026-05-05 19:02 | 21.17240 | -157.43835 | 14048 ft | 406 kts | 98° |
| 2026-05-05 19:03 | 21.16860 | -157.40813 | 14761 ft | 410 kts | 98° |
| 2026-05-05 19:03 | 21.16476 | -157.37769 | 15500 ft | 414 kts | 98° |
| 2026-05-05 19:03 | 21.16087 | -157.34695 | 16221 ft | 419 kts | 98° |
| 2026-05-05 19:03 | 21.15694 | -157.31584 | 16907 ft | 424 kts | 98° |
| 2026-05-05 19:04 | 21.15296 | -157.28436 | 17593 ft | 429 kts | 98° |
| 2026-05-05 19:04 | 21.14891 | -157.25243 | 18288 ft | 434 kts | 98° |
| 2026-05-05 19:04 | 21.14482 | -157.22021 | 18896 ft | 439 kts | 98° |
| 2026-05-05 19:04 | 21.14261 | -157.18760 | 19423 ft | 443 kts | 88° |
| 2026-05-05 19:05 | 21.14609 | -157.15462 | 19973 ft | 448 kts | 78° |
| 2026-05-05 19:05 | 21.15461 | -157.12245 | 20576 ft | 450 kts | 68° |
| 2026-05-05 19:05 | 21.16694 | -157.09139 | 21104 ft | 456 kts | 65° |
| 2026-05-05 19:05 | 21.17984 | -157.06011 | 21628 ft | 462 kts | 65° |
| 2026-05-05 19:06 | 21.19288 | -157.02848 | 22205 ft | 466 kts | 65° |
| 2026-05-05 19:06 | 21.20588 | -156.99654 | 22786 ft | 470 kts | 65° |
| 2026-05-05 19:06 | 21.21888 | -156.96422 | 23354 ft | 474 kts | 66° |
| 2026-05-05 19:06 | 21.23187 | -156.93159 | 23847 ft | 479 kts | 66° |
| 2026-05-05 19:07 | 21.24494 | -156.89860 | 24297 ft | 483 kts | 66° |
| 2026-05-05 19:07 | 21.25808 | -156.86534 | 24751 ft | 486 kts | 66° |
| 2026-05-05 19:07 | 21.27131 | -156.83185 | 25205 ft | 490 kts | 66° |
| 2026-05-05 19:07 | 21.28464 | -156.79812 | 25670 ft | 493 kts | 66° |
| 2026-05-05 19:08 | 21.29806 | -156.76417 | 26104 ft | 497 kts | 66° |
| 2026-05-05 19:08 | 21.31158 | -156.72993 | 26550 ft | 500 kts | 66° |
| 2026-05-05 19:08 | 21.32362 | -156.69478 | 26971 ft | 505 kts | 72° |
| 2026-05-05 19:08 | 21.33228 | -156.65818 | 27398 ft | 508 kts | 78° |
| 2026-05-05 19:09 | 21.33799 | -156.62062 | 27819 ft | 512 kts | 84° |
| 2026-05-05 19:09 | 21.34063 | -156.58237 | 28227 ft | 515 kts | 86° |
| 2026-05-05 19:09 | 21.34273 | -156.54433 | 28602 ft | 519 kts | 86° |
| 2026-05-05 19:09 | 21.34478 | -156.50554 | 28983 ft | 522 kts | 86° |
| 2026-05-05 19:10 | 21.34690 | -156.46652 | 29355 ft | 525 kts | 86° |
| 2026-05-05 19:10 | 21.34914 | -156.42730 | 29715 ft | 528 kts | 86° |
| 2026-05-05 19:10 | 21.35148 | -156.38792 | 30130 ft | 529 kts | 86° |
| 2026-05-05 19:10 | 21.35388 | -156.34855 | 30571 ft | 529 kts | 86° |
| 2026-05-05 19:11 | 21.35630 | -156.30923 | 31004 ft | 528 kts | 86° |
| 2026-05-05 19:11 | 21.35873 | -156.26998 | 31442 ft | 527 kts | 86° |
| 2026-05-05 19:11 | 21.36114 | -156.23074 | 31875 ft | 527 kts | 86° |
| 2026-05-05 19:11 | 21.36353 | -156.19147 | 32284 ft | 526 kts | 86° |
| 2026-05-05 19:12 | 21.36591 | -156.15231 | 32686 ft | 526 kts | 86° |
| 2026-05-05 19:12 | 21.36826 | -156.11324 | 33094 ft | 525 kts | 86° |
| 2026-05-05 19:12 | 21.37060 | -156.07413 | 33501 ft | 525 kts | 86° |
| 2026-05-05 19:12 | 21.37294 | -156.03505 | 33892 ft | 525 kts | 86° |
| 2026-05-05 19:13 | 21.37526 | -155.99599 | 34253 ft | 524 kts | 86° |
| 2026-05-05 19:13 | 21.37757 | -155.95698 | 34564 ft | 524 kts | 86° |
| 2026-05-05 19:13 | 21.37987 | -155.91789 | 34839 ft | 525 kts | 87° |
| 2026-05-05 19:13 | 21.38218 | -155.87867 | 35029 ft | 528 kts | 87° |
| 2026-05-05 19:14 | 21.38677 | -155.80005 | 35110 ft | 530 kts | 87° |
| 2026-05-05 19:14 | 21.39133 | -155.72151 | 35104 ft | 525 kts | 87° |
| 2026-05-05 19:15 | 21.39582 | -155.64342 | 35119 ft | 524 kts | 87° |
| 2026-05-05 19:15 | 21.40026 | -155.56547 | 35116 ft | 524 kts | 87° |
| 2026-05-05 19:16 | 21.40468 | -155.48734 | 35120 ft | 525 kts | 87° |
| 2026-05-05 19:16 | 21.40908 | -155.40898 | 35123 ft | 526 kts | 87° |
| 2026-05-05 19:17 | 21.41344 | -155.33052 | 35120 ft | 528 kts | 87° |
| 2026-05-05 19:17 | 21.41705 | -155.26509 | 35107 ft | 528 kts | 87° |
| 2026-05-05 19:18 | 21.42138 | -155.18623 | 35128 ft | 529 kts | 87° |
| 2026-05-05 19:18 | 21.42768 | -155.10751 | 35114 ft | 530 kts | 81° |
| 2026-05-05 19:19 | 21.43957 | -155.02989 | 35125 ft | 530 kts | 80° |
| 2026-05-05 19:19 | 21.45189 | -154.95181 | 35115 ft | 530 kts | 80° |
| 2026-05-05 19:20 | 21.46383 | -154.87377 | 35120 ft | 529 kts | 81° |
| 2026-05-05 19:20 | 21.47550 | -154.79576 | 35123 ft | 528 kts | 81° |
| 2026-05-05 19:21 | 21.48705 | -154.71796 | 35122 ft | 527 kts | 81° |
| 2026-05-05 19:21 | 21.49856 | -154.64028 | 35123 ft | 527 kts | 81° |
| 2026-05-05 19:22 | 21.51006 | -154.56264 | 35123 ft | 526 kts | 81° |
| 2026-05-05 19:22 | 21.52153 | -154.48492 | 35134 ft | 526 kts | 81° |
| 2026-05-05 19:23 | 21.53295 | -154.40724 | 35126 ft | 527 kts | 81° |
| 2026-05-05 19:23 | 21.54434 | -154.32955 | 35126 ft | 527 kts | 81° |
| 2026-05-05 19:24 | 21.55564 | -154.25216 | 35138 ft | 528 kts | 81° |
| 2026-05-05 19:24 | 21.56701 | -154.17412 | 35132 ft | 529 kts | 81° |
| 2026-05-05 19:25 | 21.57834 | -154.09603 | 35139 ft | 529 kts | 81° |
| 2026-05-05 19:25 | 21.58964 | -154.01790 | 35148 ft | 529 kts | 81° |
| 2026-05-05 19:26 | 21.60091 | -153.93969 | 35129 ft | 529 kts | 81° |
| 2026-05-05 19:26 | 21.61213 | -153.86155 | 35132 ft | 528 kts | 81° |
| 2026-05-05 19:27 | 21.62329 | -153.78364 | 35130 ft | 527 kts | 81° |
| 2026-05-05 19:27 | 21.63440 | -153.70574 | 35133 ft | 527 kts | 81° |
| 2026-05-05 19:28 | 21.64547 | -153.62788 | 35138 ft | 526 kts | 81° |
| 2026-05-05 19:28 | 21.65649 | -153.55014 | 35130 ft | 526 kts | 81° |
| 2026-05-05 19:29 | 21.66749 | -153.47223 | 35141 ft | 527 kts | 81° |
| 2026-05-05 19:29 | 21.67837 | -153.39489 | 35125 ft | 527 kts | 81° |
| 2026-05-05 19:30 | 21.68932 | -153.31678 | 35146 ft | 528 kts | 81° |
| 2026-05-05 19:30 | 21.70025 | -153.23861 | 35133 ft | 529 kts | 81° |
| 2026-05-05 19:31 | 21.71500 | -153.16115 | 35136 ft | 529 kts | 72° |
| 2026-05-05 19:31 | 21.74178 | -153.08768 | 35133 ft | 527 kts | 61° |
| 2026-05-05 19:32 | 21.77681 | -153.01863 | 35144 ft | 525 kts | 59° |
| 2026-05-05 19:32 | 21.81226 | -152.94992 | 35139 ft | 525 kts | 59° |
| 2026-05-05 19:33 | 21.84733 | -152.88097 | 35135 ft | 524 kts | 59° |
| 2026-05-05 19:33 | 21.88203 | -152.81204 | 35138 ft | 524 kts | 59° |
| 2026-05-05 19:34 | 21.91640 | -152.74353 | 35138 ft | 523 kts | 59° |
| 2026-05-05 19:35 | 21.96829 | -152.64005 | 35147 ft | 523 kts | 59° |
| 2026-05-05 19:35 | 22.00284 | -152.57109 | 35140 ft | 523 kts | 60° |
| 2026-05-05 19:36 | 22.03741 | -152.50198 | 35137 ft | 523 kts | 60° |
| 2026-05-05 19:36 | 22.07191 | -152.43294 | 35141 ft | 523 kts | 60° |
| 2026-05-05 19:37 | 22.10638 | -152.36384 | 35142 ft | 523 kts | 60° |
| 2026-05-05 19:37 | 22.14080 | -152.29477 | 35142 ft | 523 kts | 60° |
| 2026-05-05 19:38 | 22.17518 | -152.22568 | 35151 ft | 523 kts | 60° |
| 2026-05-05 19:38 | 22.20933 | -152.15695 | 35145 ft | 523 kts | 60° |
| 2026-05-05 19:39 | 22.24366 | -152.08776 | 35141 ft | 523 kts | 60° |
| 2026-05-05 19:39 | 22.27795 | -152.01857 | 35142 ft | 522 kts | 60° |
| 2026-05-05 19:40 | 22.31221 | -151.94934 | 35147 ft | 522 kts | 60° |
| 2026-05-05 19:40 | 22.34641 | -151.88015 | 35140 ft | 522 kts | 60° |
| 2026-05-05 19:41 | 22.38048 | -151.81084 | 35160 ft | 522 kts | 60° |
| 2026-05-05 19:41 | 22.41444 | -151.74143 | 35147 ft | 522 kts | 60° |
| 2026-05-05 19:42 | 22.44834 | -151.67207 | 35147 ft | 522 kts | 60° |
| 2026-05-05 19:42 | 22.48230 | -151.60253 | 35146 ft | 522 kts | 60° |
| 2026-05-05 19:43 | 22.51612 | -151.53320 | 35148 ft | 522 kts | 60° |
| 2026-05-05 19:43 | 22.54994 | -151.46378 | 35149 ft | 522 kts | 60° |
| 2026-05-05 19:44 | 22.58350 | -151.39480 | 35148 ft | 521 kts | 60° |
| 2026-05-05 19:44 | 22.61726 | -151.32530 | 35147 ft | 521 kts | 60° |
| 2026-05-05 19:45 | 22.65100 | -151.25577 | 35152 ft | 521 kts | 60° |
| 2026-05-05 19:45 | 22.68468 | -151.18623 | 35150 ft | 522 kts | 60° |
| 2026-05-05 19:46 | 22.71836 | -151.11662 | 35150 ft | 522 kts | 60° |
| 2026-05-05 19:46 | 22.75202 | -151.04695 | 35149 ft | 522 kts | 60° |
| 2026-05-05 19:47 | 22.78562 | -150.97729 | 35161 ft | 522 kts | 60° |
| 2026-05-05 19:47 | 22.81926 | -150.90747 | 35151 ft | 522 kts | 60° |
| 2026-05-05 19:48 | 22.85286 | -150.83765 | 35151 ft | 522 kts | 60° |
| 2026-05-05 19:48 | 22.88639 | -150.76784 | 35153 ft | 522 kts | 60° |
| 2026-05-05 19:49 | 22.91988 | -150.69803 | 35152 ft | 522 kts | 60° |
| 2026-05-05 19:49 | 22.95337 | -150.62814 | 35153 ft | 522 kts | 60° |
| 2026-05-05 19:50 | 22.98680 | -150.55826 | 35163 ft | 522 kts | 60° |
| 2026-05-05 19:50 | 23.02005 | -150.48865 | 35151 ft | 522 kts | 60° |
| 2026-05-05 19:51 | 23.05346 | -150.41862 | 35156 ft | 522 kts | 60° |
| 2026-05-05 19:51 | 23.08683 | -150.34859 | 35154 ft | 522 kts | 60° |
| 2026-05-05 19:52 | 23.12016 | -150.27851 | 35158 ft | 522 kts | 60° |
| 2026-05-05 19:52 | 23.15348 | -150.20836 | 35157 ft | 522 kts | 60° |
| 2026-05-05 19:53 | 23.18674 | -150.13825 | 35162 ft | 522 kts | 60° |
| 2026-05-05 19:53 | 23.22000 | -150.06803 | 35160 ft | 522 kts | 60° |
| 2026-05-05 19:54 | 23.25322 | -149.99781 | 35155 ft | 522 kts | 60° |
| 2026-05-05 19:54 | 23.28643 | -149.92750 | 35154 ft | 522 kts | 60° |
| 2026-05-05 19:55 | 23.31957 | -149.85722 | 35155 ft | 522 kts | 60° |
| 2026-05-05 19:55 | 23.35268 | -149.78693 | 35158 ft | 522 kts | 60° |
| 2026-05-05 19:56 | 23.38558 | -149.71696 | 35168 ft | 522 kts | 60° |
| 2026-05-05 19:56 | 23.41869 | -149.64646 | 35165 ft | 523 kts | 60° |
| 2026-05-05 19:57 | 23.45175 | -149.57594 | 35159 ft | 523 kts | 60° |
| 2026-05-05 19:57 | 23.48481 | -149.50534 | 35165 ft | 523 kts | 60° |
| 2026-05-05 19:58 | 23.51782 | -149.43473 | 35164 ft | 523 kts | 60° |
| 2026-05-05 19:58 | 23.55079 | -149.36412 | 35165 ft | 522 kts | 61° |
| 2026-05-05 19:59 | 23.58374 | -149.29343 | 35161 ft | 523 kts | 60° |
| 2026-05-05 19:59 | 23.61668 | -149.22265 | 35164 ft | 523 kts | 61° |
| 2026-05-05 20:00 | 23.64935 | -149.15238 | 35163 ft | 523 kts | 61° |
| 2026-05-05 20:00 | 23.68222 | -149.08156 | 35171 ft | 523 kts | 61° |
| 2026-05-05 20:01 | 23.71505 | -149.01072 | 35162 ft | 523 kts | 61° |
| 2026-05-05 20:01 | 23.74783 | -148.93987 | 35177 ft | 523 kts | 61° |
| 2026-05-05 20:02 | 23.78062 | -148.86891 | 35161 ft | 523 kts | 61° |
| 2026-05-05 20:02 | 23.81340 | -148.79786 | 35169 ft | 524 kts | 61° |
| 2026-05-05 20:03 | 23.84614 | -148.72677 | 35177 ft | 524 kts | 61° |
| 2026-05-05 20:03 | 23.87888 | -148.65561 | 35164 ft | 524 kts | 61° |
| 2026-05-05 20:04 | 23.91133 | -148.58495 | 35164 ft | 524 kts | 61° |
| 2026-05-05 20:04 | 23.94401 | -148.51368 | 35170 ft | 524 kts | 61° |
| 2026-05-05 20:05 | 23.97668 | -148.44234 | 35167 ft | 525 kts | 61° |
| 2026-05-05 20:05 | 24.00934 | -148.37090 | 35172 ft | 525 kts | 61° |
| 2026-05-05 20:06 | 24.04195 | -148.29947 | 35172 ft | 524 kts | 61° |
| 2026-05-05 20:06 | 24.06894 | -148.24026 | 35171 ft | 523 kts | 61° |
| 2026-05-05 20:07 | 24.10140 | -148.16897 | 35171 ft | 524 kts | 61° |
| 2026-05-05 20:07 | 24.13387 | -148.09753 | 35177 ft | 525 kts | 61° |
| 2026-05-05 20:08 | 24.16641 | -148.02584 | 35179 ft | 525 kts | 61° |
| 2026-05-05 20:08 | 24.19887 | -147.95420 | 35175 ft | 525 kts | 61° |
| 2026-05-05 20:09 | 24.23129 | -147.88254 | 35174 ft | 525 kts | 61° |
| 2026-05-05 20:09 | 24.26372 | -147.81076 | 35179 ft | 525 kts | 61° |
| 2026-05-05 20:10 | 24.29586 | -147.73949 | 35197 ft | 525 kts | 61° |
| 2026-05-05 20:10 | 24.32819 | -147.66772 | 35183 ft | 525 kts | 61° |
| 2026-05-05 20:11 | 24.36051 | -147.59584 | 35182 ft | 525 kts | 61° |
| 2026-05-05 20:11 | 24.39273 | -147.52408 | 35184 ft | 524 kts | 61° |
| 2026-05-05 20:12 | 24.42498 | -147.45213 | 35182 ft | 524 kts | 61° |
| 2026-05-05 20:12 | 24.45710 | -147.38035 | 35180 ft | 524 kts | 61° |
| 2026-05-05 20:13 | 24.48924 | -147.30843 | 35186 ft | 524 kts | 61° |
| 2026-05-05 20:13 | 24.52130 | -147.23657 | 35185 ft | 524 kts | 61° |
| 2026-05-05 20:14 | 24.55314 | -147.16510 | 35183 ft | 524 kts | 61° |
| 2026-05-05 20:14 | 24.58516 | -147.09310 | 35183 ft | 524 kts | 61° |
| 2026-05-05 20:15 | 24.61714 | -147.02109 | 35191 ft | 524 kts | 61° |
| 2026-05-05 20:15 | 24.64907 | -146.94906 | 35205 ft | 524 kts | 61° |
| 2026-05-05 20:16 | 24.68101 | -146.87690 | 35193 ft | 524 kts | 61° |
| 2026-05-05 20:16 | 24.71294 | -146.80465 | 35188 ft | 524 kts | 61° |
| 2026-05-05 20:17 | 24.74477 | -146.73251 | 35195 ft | 523 kts | 61° |
| 2026-05-05 20:17 | 24.77650 | -146.66048 | 35196 ft | 523 kts | 61° |
| 2026-05-05 20:18 | 24.80822 | -146.58837 | 35209 ft | 523 kts | 62° |
| 2026-05-05 20:18 | 24.83988 | -146.51626 | 35198 ft | 523 kts | 62° |
| 2026-05-05 20:19 | 24.87125 | -146.44471 | 35201 ft | 522 kts | 62° |
| 2026-05-05 20:19 | 24.90277 | -146.37270 | 35196 ft | 521 kts | 62° |
| 2026-05-05 20:20 | 24.93421 | -146.30075 | 35198 ft | 521 kts | 62° |
| 2026-05-05 20:20 | 24.96563 | -146.22875 | 35218 ft | 521 kts | 62° |
| 2026-05-05 20:21 | 24.99696 | -146.15682 | 35200 ft | 520 kts | 62° |
| 2026-05-05 20:21 | 25.02824 | -146.08491 | 35203 ft | 520 kts | 62° |
| 2026-05-05 20:22 | 25.05940 | -146.01313 | 35206 ft | 519 kts | 62° |
| 2026-05-05 20:22 | 25.09055 | -145.94128 | 35207 ft | 519 kts | 62° |
| 2026-05-05 20:23 | 25.12163 | -145.86946 | 35211 ft | 519 kts | 62° |
| 2026-05-05 20:23 | 25.15269 | -145.79758 | 35214 ft | 519 kts | 62° |
| 2026-05-05 20:24 | 25.18369 | -145.72573 | 35210 ft | 518 kts | 62° |
| 2026-05-05 20:24 | 25.21464 | -145.65385 | 35209 ft | 518 kts | 62° |
| 2026-05-05 20:25 | 25.24554 | -145.58198 | 35212 ft | 518 kts | 62° |
| 2026-05-05 20:25 | 25.27640 | -145.51010 | 35212 ft | 518 kts | 62° |
| 2026-05-05 20:26 | 25.30721 | -145.43820 | 35224 ft | 518 kts | 62° |
| 2026-05-05 20:26 | 25.33777 | -145.36672 | 35215 ft | 518 kts | 62° |
| 2026-05-05 20:27 | 25.36850 | -145.29473 | 35214 ft | 517 kts | 62° |
| 2026-05-05 20:27 | 25.39916 | -145.22278 | 35215 ft | 517 kts | 62° |
| 2026-05-05 20:28 | 25.43001 | -145.15025 | 35216 ft | 517 kts | 62° |
| 2026-05-05 20:28 | 25.46039 | -145.07873 | 35232 ft | 517 kts | 62° |
| 2026-05-05 20:29 | 25.49096 | -145.00665 | 35216 ft | 517 kts | 62° |
| 2026-05-05 20:29 | 25.52142 | -144.93468 | 35221 ft | 516 kts | 62° |
| 2026-05-05 20:30 | 25.55180 | -144.86280 | 35222 ft | 515 kts | 62° |
| 2026-05-05 20:30 | 25.58213 | -144.79090 | 35223 ft | 515 kts | 62° |
| 2026-05-05 20:31 | 25.61238 | -144.71910 | 35238 ft | 514 kts | 63° |
| 2026-05-05 20:31 | 25.64260 | -144.64724 | 35228 ft | 513 kts | 63° |
| 2026-05-05 20:32 | 25.67270 | -144.57554 | 35223 ft | 513 kts | 63° |
| 2026-05-05 20:32 | 25.70270 | -144.50394 | 35232 ft | 512 kts | 63° |
| 2026-05-05 20:33 | 25.73267 | -144.43231 | 35225 ft | 512 kts | 63° |
| 2026-05-05 20:33 | 25.76260 | -144.36068 | 35240 ft | 512 kts | 63° |
| 2026-05-05 20:34 | 25.79247 | -144.28905 | 35229 ft | 511 kts | 63° |
| 2026-05-05 20:34 | 25.82228 | -144.21744 | 35229 ft | 511 kts | 63° |
| 2026-05-05 20:35 | 25.85203 | -144.14585 | 35229 ft | 511 kts | 63° |
| 2026-05-05 20:35 | 25.88176 | -144.07421 | 35232 ft | 511 kts | 63° |
| 2026-05-05 20:36 | 25.91144 | -144.00255 | 35244 ft | 510 kts | 63° |
| 2026-05-05 20:36 | 25.94084 | -143.93144 | 35229 ft | 510 kts | 63° |
| 2026-05-05 20:37 | 25.97039 | -143.85987 | 35230 ft | 509 kts | 63° |
| 2026-05-05 20:37 | 25.99986 | -143.78835 | 35228 ft | 509 kts | 63° |
| 2026-05-05 20:38 | 26.02929 | -143.71682 | 35228 ft | 508 kts | 63° |
| 2026-05-05 20:38 | 26.05867 | -143.64530 | 35232 ft | 508 kts | 63° |
| 2026-05-05 20:39 | 26.08805 | -143.57364 | 35234 ft | 508 kts | 63° |
| 2026-05-05 20:39 | 26.11735 | -143.50208 | 35234 ft | 509 kts | 63° |
| 2026-05-05 20:40 | 26.14666 | -143.43034 | 35236 ft | 509 kts | 63° |
| 2026-05-05 20:40 | 26.17573 | -143.35908 | 35233 ft | 509 kts | 63° |
| 2026-05-05 20:41 | 26.20498 | -143.28725 | 35244 ft | 509 kts | 63° |
| 2026-05-05 20:41 | 26.23415 | -143.21550 | 35232 ft | 509 kts | 63° |
| 2026-05-05 20:42 | 26.26328 | -143.14370 | 35236 ft | 508 kts | 63° |
| 2026-05-05 20:42 | 26.29236 | -143.07194 | 35236 ft | 508 kts | 63° |
| 2026-05-05 20:43 | 26.32136 | -143.00024 | 35229 ft | 507 kts | 63° |
| 2026-05-05 20:43 | 26.35029 | -142.92857 | 35241 ft | 507 kts | 64° |
| 2026-05-05 20:44 | 26.37918 | -142.85689 | 35238 ft | 506 kts | 64° |
| 2026-05-05 20:44 | 26.40784 | -142.78566 | 35239 ft | 506 kts | 64° |
| 2026-05-05 20:45 | 26.45099 | -142.67817 | 35240 ft | 506 kts | 64° |
| 2026-05-05 20:45 | 26.47970 | -142.60650 | 35251 ft | 506 kts | 64° |
| 2026-05-05 20:46 | 26.50837 | -142.53480 | 35240 ft | 505 kts | 64° |
| 2026-05-05 20:46 | 26.53697 | -142.46316 | 35241 ft | 505 kts | 64° |
| 2026-05-05 20:47 | 26.56553 | -142.39150 | 35242 ft | 505 kts | 64° |
| 2026-05-05 20:47 | 26.59404 | -142.31984 | 35242 ft | 505 kts | 64° |
| 2026-05-05 20:48 | 26.62250 | -142.24817 | 35248 ft | 504 kts | 64° |
| 2026-05-05 20:48 | 26.65093 | -142.17644 | 35242 ft | 504 kts | 64° |
| 2026-05-05 20:49 | 26.67910 | -142.10525 | 35245 ft | 504 kts | 64° |
| 2026-05-05 20:49 | 26.70739 | -142.03361 | 35242 ft | 503 kts | 64° |
| 2026-05-05 20:50 | 26.73108 | -141.97357 | 35248 ft | 503 kts | 64° |
| 2026-05-05 20:50 | 26.76385 | -141.89031 | 35255 ft | 503 kts | 64° |
| 2026-05-05 20:51 | 26.79204 | -141.81857 | 35252 ft | 503 kts | 64° |
| 2026-05-05 20:51 | 26.82017 | -141.74686 | 35237 ft | 503 kts | 64° |
| 2026-05-05 20:52 | 26.84827 | -141.67507 | 35241 ft | 503 kts | 64° |
| 2026-05-05 20:52 | 26.87634 | -141.60324 | 35256 ft | 503 kts | 64° |
| 2026-05-05 20:53 | 26.90437 | -141.53140 | 35246 ft | 503 kts | 64° |
| 2026-05-05 20:53 | 26.92765 | -141.47163 | 35259 ft | 503 kts | 64° |
| 2026-05-05 20:54 | 26.95562 | -141.39970 | 35254 ft | 503 kts | 64° |
| 2026-05-05 20:54 | 26.98805 | -141.31613 | 35259 ft | 503 kts | 64° |
| 2026-05-05 20:55 | 27.01140 | -141.25584 | 35262 ft | 503 kts | 64° |
| 2026-05-05 20:55 | 27.03925 | -141.18384 | 35257 ft | 503 kts | 64° |
| 2026-05-05 20:56 | 27.06685 | -141.11233 | 35250 ft | 503 kts | 64° |
| 2026-05-05 20:56 | 27.09461 | -141.04030 | 35262 ft | 503 kts | 64° |
| 2026-05-05 20:57 | 27.12232 | -140.96825 | 35260 ft | 502 kts | 64° |
| 2026-05-05 20:57 | 27.14998 | -140.89623 | 35263 ft | 502 kts | 64° |
| 2026-05-05 20:58 | 27.17760 | -140.82416 | 35255 ft | 502 kts | 64° |
| 2026-05-05 20:58 | 27.20515 | -140.75213 | 35262 ft | 502 kts | 64° |
| 2026-05-05 20:59 | 27.23266 | -140.68009 | 35259 ft | 502 kts | 64° |
| 2026-05-05 20:59 | 27.26013 | -140.60802 | 35266 ft | 501 kts | 64° |
| 2026-05-05 21:00 | 27.28755 | -140.53593 | 35267 ft | 501 kts | 65° |
| 2026-05-05 21:00 | 27.31476 | -140.46428 | 35268 ft | 501 kts | 65° |
| 2026-05-05 21:01 | 27.34212 | -140.39211 | 35271 ft | 501 kts | 65° |
| 2026-05-05 21:01 | 27.36940 | -140.32000 | 35261 ft | 501 kts | 65° |
| 2026-05-05 21:02 | 27.39666 | -140.24781 | 35267 ft | 501 kts | 65° |
| 2026-05-05 21:02 | 27.42387 | -140.17562 | 35261 ft | 501 kts | 65° |
| 2026-05-05 21:03 | 27.45104 | -140.10341 | 35266 ft | 501 kts | 65° |
| 2026-05-05 21:03 | 27.47818 | -140.03114 | 35267 ft | 501 kts | 65° |
| 2026-05-05 21:04 | 27.50524 | -139.95894 | 35273 ft | 501 kts | 65° |
| 2026-05-05 21:04 | 27.53231 | -139.88659 | 35270 ft | 500 kts | 65° |
| 2026-05-05 21:05 | 27.55928 | -139.81438 | 35273 ft | 500 kts | 65° |
| 2026-05-05 21:05 | 27.58607 | -139.74250 | 35269 ft | 500 kts | 65° |
| 2026-05-05 21:06 | 27.61297 | -139.67020 | 35269 ft | 500 kts | 65° |
| 2026-05-05 21:06 | 27.63978 | -139.59798 | 35271 ft | 499 kts | 66° |
| 2026-05-05 21:07 | 27.66654 | -139.52578 | 35272 ft | 499 kts | 66° |
| 2026-05-05 21:07 | 27.69328 | -139.45350 | 35275 ft | 498 kts | 66° |
| 2026-05-05 21:08 | 27.71994 | -139.38131 | 35272 ft | 498 kts | 66° |
| 2026-05-05 21:08 | 27.74654 | -139.30914 | 35281 ft | 498 kts | 66° |
| 2026-05-05 21:09 | 27.77313 | -139.23684 | 35272 ft | 498 kts | 66° |
| 2026-05-05 21:09 | 27.79946 | -139.16512 | 35267 ft | 497 kts | 66° |
| 2026-05-05 21:10 | 27.82589 | -139.09300 | 35271 ft | 497 kts | 66° |
| 2026-05-05 21:10 | 27.85228 | -139.02083 | 35266 ft | 497 kts | 66° |
| 2026-05-05 21:11 | 27.87862 | -138.94868 | 35275 ft | 497 kts | 66° |
| 2026-05-05 21:11 | 27.90491 | -138.87653 | 35268 ft | 496 kts | 66° |
| 2026-05-05 21:12 | 27.93117 | -138.80429 | 35271 ft | 496 kts | 66° |
| 2026-05-05 21:12 | 27.95736 | -138.73205 | 35272 ft | 496 kts | 66° |
| 2026-05-05 21:13 | 27.98349 | -138.65980 | 35276 ft | 496 kts | 66° |
| 2026-05-05 21:13 | 28.00961 | -138.58745 | 35269 ft | 497 kts | 66° |
| 2026-05-05 21:14 | 28.03569 | -138.51509 | 35272 ft | 497 kts | 66° |
| 2026-05-05 21:14 | 28.06174 | -138.44265 | 35272 ft | 497 kts | 66° |
| 2026-05-05 21:15 | 28.08759 | -138.37065 | 35278 ft | 496 kts | 66° |
| 2026-05-05 21:15 | 28.11356 | -138.29817 | 35274 ft | 497 kts | 66° |
| 2026-05-05 21:16 | 28.13948 | -138.22567 | 35271 ft | 496 kts | 67° |
| 2026-05-05 21:16 | 28.16537 | -138.15314 | 35272 ft | 496 kts | 66° |
| 2026-05-05 21:17 | 28.19121 | -138.08059 | 35279 ft | 496 kts | 66° |
| 2026-05-05 21:17 | 28.21705 | -138.00791 | 35271 ft | 496 kts | 66° |
| 2026-05-05 21:18 | 28.24283 | -137.93524 | 35271 ft | 496 kts | 66° |
| 2026-05-05 21:18 | 28.26854 | -137.86262 | 35271 ft | 496 kts | 66° |
| 2026-05-05 21:19 | 28.29411 | -137.79027 | 35278 ft | 496 kts | 66° |
| 2026-05-05 21:19 | 28.31979 | -137.71745 | 35269 ft | 497 kts | 66° |
| 2026-05-05 21:20 | 28.34544 | -137.64458 | 35274 ft | 497 kts | 66° |
| 2026-05-05 21:20 | 28.37110 | -137.57155 | 35270 ft | 497 kts | 66° |
| 2026-05-05 21:21 | 28.39670 | -137.49852 | 35271 ft | 498 kts | 66° |
| 2026-05-05 21:21 | 28.42226 | -137.42546 | 35271 ft | 498 kts | 66° |
| 2026-05-05 21:22 | 28.44763 | -137.35280 | 35268 ft | 498 kts | 66° |
| 2026-05-05 21:22 | 28.47318 | -137.27949 | 35260 ft | 498 kts | 66° |
| 2026-05-05 21:23 | 28.49870 | -137.20612 | 35266 ft | 498 kts | 66° |
| 2026-05-05 21:23 | 28.52414 | -137.13282 | 35263 ft | 498 kts | 66° |
| 2026-05-05 21:24 | 28.54952 | -137.05954 | 35261 ft | 498 kts | 66° |
| 2026-05-05 21:24 | 28.57490 | -136.98612 | 35264 ft | 498 kts | 66° |
| 2026-05-05 21:25 | 28.60018 | -136.91282 | 35262 ft | 498 kts | 66° |
| 2026-05-05 21:25 | 28.62530 | -136.83986 | 35261 ft | 498 kts | 66° |
| 2026-05-05 21:26 | 28.65056 | -136.76642 | 35261 ft | 498 kts | 66° |
| 2026-05-05 21:26 | 28.67582 | -136.69289 | 35264 ft | 498 kts | 66° |
| 2026-05-05 21:27 | 28.70100 | -136.61929 | 35271 ft | 498 kts | 66° |
| 2026-05-05 21:27 | 28.72611 | -136.54572 | 35261 ft | 499 kts | 66° |
| 2026-05-05 21:28 | 28.75118 | -136.47198 | 35265 ft | 499 kts | 66° |
| 2026-05-05 21:28 | 28.77608 | -136.39868 | 35264 ft | 499 kts | 66° |
| 2026-05-05 21:29 | 28.80111 | -136.32491 | 35274 ft | 499 kts | 66° |
| 2026-05-05 21:29 | 28.82611 | -136.25110 | 35264 ft | 499 kts | 66° |
| 2026-05-05 21:30 | 28.85110 | -136.17718 | 35268 ft | 499 kts | 66° |
| 2026-05-05 21:30 | 28.87605 | -136.10320 | 35264 ft | 499 kts | 66° |
| 2026-05-05 21:31 | 28.90095 | -136.02919 | 35274 ft | 500 kts | 66° |
| 2026-05-05 21:31 | 28.92586 | -135.95502 | 35263 ft | 502 kts | 66° |
| 2026-05-05 21:32 | 28.95100 | -135.88007 | 35275 ft | 514 kts | 66° |
| 2026-05-05 21:32 | 28.97652 | -135.80375 | 35263 ft | 513 kts | 66° |
| 2026-05-05 21:33 | 29.00188 | -135.72765 | 35257 ft | 511 kts | 66° |
| 2026-05-05 21:33 | 29.03415 | -135.63063 | 35259 ft | 510 kts | 66° |
| 2026-05-05 21:34 | 29.13422 | -135.32825 | 35256 ft | 508 kts | 65° |
| 2026-05-05 21:34 | 29.23351 | -135.02557 | 35264 ft | 509 kts | 65° |
| 2026-05-05 21:35 | 29.33261 | -134.72077 | 35261 ft | 511 kts | 66° |
| 2026-05-05 21:35 | 29.43138 | -134.41421 | 35268 ft | 513 kts | 65° |
| 2026-05-05 21:36 | 29.52910 | -134.10818 | 35252 ft | 514 kts | 65° |
| 2026-05-05 21:36 | 29.62699 | -133.79876 | 35264 ft | 515 kts | 65° |
| 2026-05-05 21:37 | 29.72408 | -133.48901 | 35235 ft | 515 kts | 65° |
| 2026-05-05 21:37 | 29.82034 | -133.17903 | 35250 ft | 514 kts | 65° |
| 2026-05-05 21:38 | 29.91598 | -132.86810 | 35242 ft | 515 kts | 65° |
| 2026-05-05 21:38 | 30.01098 | -132.55627 | 35244 ft | 515 kts | 65° |
| 2026-05-05 21:39 | 30.10550 | -132.24298 | 35230 ft | 517 kts | 65° |
| 2026-05-05 21:39 | 30.23331 | -131.81378 | 35219 ft | 518 kts | 65° |
| 2026-05-05 21:40 | 30.66524 | -130.35380 | 35190 ft | 503 kts | 54° |
| 2026-05-05 21:40 | 30.69813 | -130.28188 | 35215 ft | 513 kts | 59° |
| 2026-05-05 21:41 | 30.72710 | -130.20545 | 35203 ft | 516 kts | 60° |
| 2026-05-05 21:41 | 30.74126 | -130.16760 | 35192 ft | 505 kts | 60° |
| 2026-05-05 21:41 | 30.75538 | -130.13061 | 35192 ft | 498 kts | 59° |
| 2026-05-05 21:42 | 30.78423 | -130.05750 | 35199 ft | 497 kts | 59° |
| 2026-05-05 21:42 | 30.81356 | -129.98464 | 35213 ft | 498 kts | 59° |
| 2026-05-05 21:43 | 30.84276 | -129.91206 | 35206 ft | 499 kts | 59° |
| 2026-05-05 21:43 | 30.87208 | -129.83882 | 35201 ft | 499 kts | 59° |
| 2026-05-05 21:44 | 30.90130 | -129.76555 | 35212 ft | 499 kts | 59° |
| 2026-05-05 21:44 | 30.92558 | -129.70450 | 35205 ft | 499 kts | 59° |
| 2026-05-05 21:45 | 30.95477 | -129.63102 | 35198 ft | 499 kts | 59° |
| 2026-05-05 21:45 | 30.98388 | -129.55759 | 35219 ft | 499 kts | 59° |
| 2026-05-05 21:46 | 31.01298 | -129.48405 | 35196 ft | 500 kts | 59° |
| 2026-05-05 21:46 | 31.04204 | -129.41044 | 35205 ft | 500 kts | 59° |
| 2026-05-05 21:47 | 31.07104 | -129.33684 | 35212 ft | 500 kts | 59° |
| 2026-05-05 21:47 | 31.10003 | -129.26312 | 35194 ft | 500 kts | 59° |
| 2026-05-05 21:48 | 31.12902 | -129.18924 | 35194 ft | 500 kts | 59° |
| 2026-05-05 21:48 | 31.15777 | -129.11583 | 35221 ft | 501 kts | 59° |
| 2026-05-05 21:49 | 31.18674 | -129.04171 | 35195 ft | 501 kts | 59° |
| 2026-05-05 21:49 | 31.21559 | -128.96773 | 35185 ft | 500 kts | 59° |
| 2026-05-05 21:50 | 31.24436 | -128.89379 | 35184 ft | 500 kts | 60° |
| 2026-05-05 21:50 | 31.27307 | -128.81987 | 35192 ft | 499 kts | 60° |
| 2026-05-05 21:51 | 31.30172 | -128.74594 | 35183 ft | 499 kts | 60° |
| 2026-05-05 21:51 | 31.33027 | -128.67212 | 35185 ft | 498 kts | 60° |
| 2026-05-05 21:52 | 31.37296 | -128.56147 | 35189 ft | 496 kts | 61° |
| 2026-05-05 21:53 | 31.40124 | -128.48793 | 35185 ft | 495 kts | 61° |
| 2026-05-05 21:53 | 31.42945 | -128.41445 | 35180 ft | 494 kts | 61° |
| 2026-05-05 21:54 | 31.45735 | -128.34163 | 35192 ft | 493 kts | 61° |
| 2026-05-05 21:54 | 31.48524 | -128.26867 | 35183 ft | 489 kts | 62° |
| 2026-05-05 21:55 | 31.51289 | -128.19622 | 35177 ft | 485 kts | 62° |
| 2026-05-05 21:55 | 31.54034 | -128.12415 | 35182 ft | 482 kts | 62° |
| 2026-05-05 21:56 | 31.56753 | -128.05256 | 35179 ft | 480 kts | 62° |
| 2026-05-05 21:56 | 31.59461 | -127.98117 | 35181 ft | 479 kts | 62° |
| 2026-05-05 21:57 | 31.62166 | -127.90971 | 35189 ft | 479 kts | 63° |
| 2026-05-05 21:57 | 31.64867 | -127.83822 | 35182 ft | 479 kts | 63° |
| 2026-05-05 21:58 | 31.67564 | -127.76665 | 35180 ft | 480 kts | 63° |
| 2026-05-05 21:58 | 31.70249 | -127.69527 | 35189 ft | 480 kts | 63° |
| 2026-05-05 21:59 | 31.72945 | -127.62343 | 35174 ft | 480 kts | 63° |
| 2026-05-05 21:59 | 31.75633 | -127.55165 | 35176 ft | 480 kts | 63° |
| 2026-05-05 22:00 | 31.78313 | -127.47995 | 35159 ft | 479 kts | 63° |
| 2026-05-05 22:00 | 31.80990 | -127.40819 | 35163 ft | 478 kts | 64° |
| 2026-05-05 22:01 | 31.83655 | -127.33658 | 35180 ft | 477 kts | 64° |
| 2026-05-05 22:01 | 31.86309 | -127.26511 | 35168 ft | 476 kts | 64° |
| 2026-05-05 22:02 | 31.88956 | -127.19373 | 35173 ft | 475 kts | 64° |
| 2026-05-05 22:02 | 31.91577 | -127.12286 | 35166 ft | 474 kts | 64° |
| 2026-05-05 22:03 | 31.94204 | -127.05169 | 35165 ft | 474 kts | 64° |
| 2026-05-05 22:03 | 31.96822 | -126.98062 | 35174 ft | 473 kts | 64° |
| 2026-05-05 22:04 | 31.99434 | -126.90956 | 35161 ft | 472 kts | 64° |
| 2026-05-05 22:04 | 32.02041 | -126.83849 | 35161 ft | 472 kts | 64° |
| 2026-05-05 22:05 | 32.04641 | -126.76749 | 35165 ft | 472 kts | 64° |
| 2026-05-05 22:05 | 32.07232 | -126.69649 | 35168 ft | 471 kts | 64° |
| 2026-05-05 22:06 | 32.09821 | -126.62568 | 35154 ft | 470 kts | 64° |
| 2026-05-05 22:06 | 32.12395 | -126.55488 | 35160 ft | 469 kts | 65° |
| 2026-05-05 22:07 | 32.14959 | -126.48418 | 35166 ft | 468 kts | 65° |
| 2026-05-05 22:07 | 32.17515 | -126.41358 | 35161 ft | 468 kts | 65° |
| 2026-05-05 22:08 | 32.20052 | -126.34341 | 35156 ft | 467 kts | 65° |
| 2026-05-05 22:08 | 32.22599 | -126.27279 | 35158 ft | 467 kts | 65° |
| 2026-05-05 22:09 | 32.25143 | -126.20215 | 35159 ft | 467 kts | 65° |
| 2026-05-05 22:09 | 32.27681 | -126.13148 | 35155 ft | 467 kts | 65° |
| 2026-05-05 22:10 | 32.30217 | -126.06075 | 35156 ft | 467 kts | 65° |
| 2026-05-05 22:10 | 32.32750 | -125.98992 | 35155 ft | 467 kts | 65° |
| 2026-05-05 22:11 | 32.35263 | -125.91952 | 35152 ft | 467 kts | 65° |
| 2026-05-05 22:11 | 32.37786 | -125.84869 | 35153 ft | 468 kts | 65° |
| 2026-05-05 22:12 | 32.40309 | -125.77773 | 35152 ft | 468 kts | 65° |
| 2026-05-05 22:12 | 32.42825 | -125.70679 | 35155 ft | 468 kts | 65° |
| 2026-05-05 22:13 | 32.45338 | -125.63577 | 35146 ft | 467 kts | 65° |
| 2026-05-05 22:13 | 32.47844 | -125.56481 | 35147 ft | 467 kts | 65° |
| 2026-05-05 22:14 | 32.50346 | -125.49382 | 35154 ft | 467 kts | 65° |
| 2026-05-05 22:14 | 32.52840 | -125.42289 | 35147 ft | 466 kts | 65° |
| 2026-05-05 22:15 | 32.55326 | -125.35207 | 35142 ft | 465 kts | 66° |
| 2026-05-05 22:15 | 32.57807 | -125.28120 | 35144 ft | 465 kts | 66° |
| 2026-05-05 22:16 | 32.60278 | -125.21048 | 35150 ft | 464 kts | 66° |
| 2026-05-05 22:16 | 32.62723 | -125.14034 | 35144 ft | 463 kts | 66° |
| 2026-05-05 22:17 | 32.65182 | -125.06967 | 35139 ft | 463 kts | 66° |
| 2026-05-05 22:17 | 32.67630 | -124.99914 | 35138 ft | 462 kts | 66° |
| 2026-05-05 22:18 | 32.70077 | -124.92850 | 35142 ft | 462 kts | 66° |
| 2026-05-05 22:18 | 32.72517 | -124.85793 | 35133 ft | 462 kts | 66° |
| 2026-05-05 22:19 | 32.74953 | -124.78730 | 35138 ft | 462 kts | 66° |
| 2026-05-05 22:19 | 32.77382 | -124.71671 | 35145 ft | 461 kts | 66° |
| 2026-05-05 22:20 | 32.79808 | -124.64606 | 35126 ft | 461 kts | 66° |
| 2026-05-05 22:20 | 32.82208 | -124.57602 | 35136 ft | 460 kts | 66° |
| 2026-05-05 22:21 | 32.84617 | -124.50556 | 35134 ft | 460 kts | 66° |
| 2026-05-05 22:21 | 32.87020 | -124.43512 | 35130 ft | 459 kts | 66° |
| 2026-05-05 22:22 | 32.89424 | -124.36450 | 35125 ft | 459 kts | 66° |
| 2026-05-05 22:22 | 32.91820 | -124.29396 | 35125 ft | 459 kts | 66° |
| 2026-05-05 22:23 | 32.94209 | -124.22348 | 35125 ft | 459 kts | 66° |
| 2026-05-05 22:23 | 32.96594 | -124.15295 | 35130 ft | 459 kts | 66° |
| 2026-05-05 22:24 | 32.98977 | -124.08234 | 35123 ft | 459 kts | 66° |
| 2026-05-05 22:24 | 33.01335 | -124.01230 | 35121 ft | 459 kts | 66° |
| 2026-05-05 22:25 | 33.03705 | -123.94175 | 35144 ft | 459 kts | 65° |
| 2026-05-05 22:25 | 33.06076 | -123.87102 | 35132 ft | 459 kts | 65° |
| 2026-05-05 22:26 | 33.08440 | -123.80035 | 35123 ft | 459 kts | 65° |
| 2026-05-05 22:26 | 33.10801 | -123.72961 | 35119 ft | 458 kts | 66° |
| 2026-05-05 22:27 | 33.13152 | -123.65900 | 35117 ft | 458 kts | 66° |
| 2026-05-05 22:27 | 33.15499 | -123.58835 | 35117 ft | 458 kts | 66° |
| 2026-05-05 22:28 | 33.17843 | -123.51764 | 35117 ft | 458 kts | 66° |
| 2026-05-05 22:28 | 33.20168 | -123.44734 | 35118 ft | 458 kts | 66° |
| 2026-05-05 22:29 | 33.22502 | -123.37663 | 35116 ft | 458 kts | 66° |
| 2026-05-05 22:29 | 33.24991 | -123.30103 | 35115 ft | 458 kts | 66° |
| 2026-05-05 22:30 | 33.33508 | -123.04094 | 35112 ft | 458 kts | 66° |
| 2026-05-05 22:30 | 33.42746 | -122.75639 | 35111 ft | 459 kts | 66° |
| 2026-05-05 22:31 | 33.51441 | -122.49954 | 35006 ft | 459 kts | 62° |
| 2026-05-05 22:31 | 33.54112 | -122.43031 | 35090 ft | 457 kts | 62° |
| 2026-05-05 22:32 | 33.56747 | -122.36099 | 35096 ft | 457 kts | 63° |
| 2026-05-05 22:32 | 33.59366 | -122.29153 | 35098 ft | 457 kts | 63° |
| 2026-05-05 22:33 | 33.61983 | -122.22206 | 35093 ft | 457 kts | 63° |
| 2026-05-05 22:33 | 33.64580 | -122.15308 | 35093 ft | 457 kts | 63° |
| 2026-05-05 22:34 | 33.67195 | -122.08350 | 35092 ft | 457 kts | 63° |
| 2026-05-05 22:34 | 33.69361 | -122.02574 | 35101 ft | 457 kts | 63° |
| 2026-05-05 22:35 | 33.71972 | -121.95602 | 35091 ft | 457 kts | 63° |
| 2026-05-05 22:35 | 33.74574 | -121.88633 | 35096 ft | 455 kts | 63° |
| 2026-05-05 22:36 | 33.77161 | -121.81693 | 35084 ft | 453 kts | 63° |
| 2026-05-05 22:36 | 33.79726 | -121.74799 | 35083 ft | 451 kts | 63° |
| 2026-05-05 22:37 | 33.82277 | -121.67928 | 35076 ft | 449 kts | 63° |
| 2026-05-05 22:37 | 33.84820 | -121.61064 | 35083 ft | 449 kts | 63° |
| 2026-05-05 22:38 | 33.87339 | -121.54250 | 35086 ft | 449 kts | 63° |
| 2026-05-05 22:38 | 33.89879 | -121.47368 | 35084 ft | 451 kts | 63° |
| 2026-05-05 22:39 | 33.92422 | -121.40460 | 35075 ft | 452 kts | 63° |
| 2026-05-05 22:39 | 33.94968 | -121.33529 | 35071 ft | 453 kts | 63° |
| 2026-05-05 22:40 | 33.97517 | -121.26576 | 35069 ft | 453 kts | 63° |
| 2026-05-05 22:40 | 34.00062 | -121.19616 | 35076 ft | 454 kts | 63° |
| 2026-05-05 22:41 | 34.02603 | -121.12655 | 35068 ft | 453 kts | 63° |
| 2026-05-05 22:41 | 34.05139 | -121.05693 | 35064 ft | 453 kts | 63° |
| 2026-05-05 22:42 | 34.07647 | -120.98791 | 35062 ft | 452 kts | 63° |
| 2026-05-05 22:42 | 34.10166 | -120.91845 | 35062 ft | 452 kts | 63° |
| 2026-05-05 22:43 | 34.12684 | -120.84887 | 35064 ft | 452 kts | 63° |
| 2026-05-05 22:43 | 34.15198 | -120.77927 | 35079 ft | 453 kts | 63° |
| 2026-05-05 22:44 | 34.17725 | -120.70917 | 35364 ft | 458 kts | 63° |
| 2026-05-05 22:44 | 34.19002 | -120.67369 | 35631 ft | 461 kts | 63° |
| 2026-05-05 22:44 | 34.20282 | -120.63807 | 35890 ft | 464 kts | 63° |
| 2026-05-05 22:44 | 34.21571 | -120.60217 | 36116 ft | 467 kts | 63° |
| 2026-05-05 22:45 | 34.22867 | -120.56604 | 36322 ft | 471 kts | 63° |
| 2026-05-05 22:45 | 34.24172 | -120.52961 | 36511 ft | 474 kts | 63° |
| 2026-05-05 22:45 | 34.25485 | -120.49289 | 36700 ft | 477 kts | 63° |
| 2026-05-05 22:45 | 34.26801 | -120.45605 | 36955 ft | 478 kts | 63° |
| 2026-05-05 22:46 | 34.28126 | -120.41893 | 37014 ft | 483 kts | 63° |
| 2026-05-05 22:46 | 34.30788 | -120.34420 | 37062 ft | 483 kts | 63° |
| 2026-05-05 22:47 | 34.33422 | -120.27001 | 37039 ft | 477 kts | 63° |
| 2026-05-05 22:47 | 34.36018 | -120.19679 | 37043 ft | 476 kts | 63° |
| 2026-05-05 22:48 | 34.38623 | -120.12319 | 37033 ft | 476 kts | 63° |
| 2026-05-05 22:48 | 34.41230 | -120.04936 | 37019 ft | 478 kts | 63° |
| 2026-05-05 22:49 | 34.43845 | -119.97511 | 37009 ft | 480 kts | 63° |
| 2026-05-05 22:49 | 34.46463 | -119.90058 | 37006 ft | 482 kts | 64° |
| 2026-05-05 22:50 | 34.49086 | -119.82573 | 37009 ft | 483 kts | 64° |
| 2026-05-05 22:50 | 34.51065 | -119.74748 | 36997 ft | 489 kts | 75° |
| 2026-05-05 22:51 | 34.51927 | -119.66508 | 36993 ft | 494 kts | 82° |
| 2026-05-05 22:51 | 34.52502 | -119.58198 | 36986 ft | 495 kts | 82° |
| 2026-05-05 22:52 | 34.53091 | -119.49877 | 36997 ft | 495 kts | 82° |
| 2026-05-05 22:52 | 34.53703 | -119.41615 | 37017 ft | 495 kts | 82° |
| 2026-05-05 22:53 | 34.54329 | -119.33245 | 37008 ft | 495 kts | 82° |
| 2026-05-05 22:53 | 34.54944 | -119.24974 | 37023 ft | 495 kts | 82° |
| 2026-05-05 22:54 | 34.55555 | -119.16651 | 37020 ft | 496 kts | 83° |
| 2026-05-05 22:54 | 34.56161 | -119.08323 | 37017 ft | 495 kts | 83° |
| 2026-05-05 22:55 | 34.56759 | -119.00007 | 37025 ft | 494 kts | 83° |
| 2026-05-05 22:55 | 34.57350 | -118.91700 | 37037 ft | 494 kts | 82° |
| 2026-05-05 22:56 | 34.57936 | -118.83390 | 37011 ft | 494 kts | 82° |
| 2026-05-05 22:56 | 34.58520 | -118.75084 | 37003 ft | 495 kts | 83° |
| 2026-05-05 22:57 | 34.59098 | -118.66742 | 37019 ft | 498 kts | 83° |
| 2026-05-05 22:57 | 34.59672 | -118.58334 | 37009 ft | 501 kts | 83° |
| 2026-05-05 22:58 | 34.60245 | -118.49874 | 36984 ft | 504 kts | 83° |
| 2026-05-05 22:58 | 34.60814 | -118.41381 | 36980 ft | 505 kts | 83° |
| 2026-05-05 22:59 | 34.61379 | -118.32885 | 36985 ft | 504 kts | 83° |
| 2026-05-05 22:59 | 34.61933 | -118.24462 | 36983 ft | 503 kts | 83° |
| 2026-05-05 23:00 | 34.62756 | -118.11780 | 36998 ft | 500 kts | 84° |
| 2026-05-05 23:00 | 34.63690 | -118.03442 | 36990 ft | 497 kts | 74° |
| 2026-05-05 23:01 | 34.65536 | -117.95364 | 36995 ft | 497 kts | 72° |
| 2026-05-05 23:01 | 34.67448 | -117.87278 | 36968 ft | 498 kts | 72° |
| 2026-05-05 23:02 | 34.69326 | -117.79153 | 36922 ft | 500 kts | 73° |
| 2026-05-05 23:02 | 34.71178 | -117.70999 | 36913 ft | 501 kts | 73° |
| 2026-05-05 23:03 | 34.73021 | -117.62829 | 36943 ft | 501 kts | 72° |
| 2026-05-05 23:03 | 34.74861 | -117.54648 | 36959 ft | 502 kts | 73° |
| 2026-05-05 23:04 | 34.76689 | -117.46506 | 36965 ft | 502 kts | 73° |
| 2026-05-05 23:04 | 34.78521 | -117.38320 | 36961 ft | 501 kts | 73° |
| 2026-05-05 23:05 | 34.80348 | -117.30124 | 36949 ft | 501 kts | 73° |
| 2026-05-05 23:05 | 34.82165 | -117.21948 | 36926 ft | 500 kts | 73° |
| 2026-05-05 23:06 | 34.83974 | -117.13779 | 36895 ft | 500 kts | 74° |
| 2026-05-05 23:06 | 34.85781 | -117.05598 | 36901 ft | 500 kts | 74° |
| 2026-05-05 23:07 | 34.87578 | -116.97419 | 36908 ft | 500 kts | 74° |
| 2026-05-05 23:07 | 34.89362 | -116.89275 | 36918 ft | 500 kts | 74° |
| 2026-05-05 23:08 | 34.91151 | -116.81080 | 36909 ft | 502 kts | 74° |
| 2026-05-05 23:08 | 34.92944 | -116.72844 | 36922 ft | 503 kts | 74° |
| 2026-05-05 23:09 | 34.94734 | -116.64588 | 36912 ft | 505 kts | 74° |
| 2026-05-05 23:09 | 34.96803 | -116.56416 | 36895 ft | 505 kts | 67° |
| 2026-05-05 23:10 | 34.99866 | -116.48737 | 36880 ft | 503 kts | 62° |
| 2026-05-05 23:10 | 35.03097 | -116.41165 | 36861 ft | 503 kts | 62° |
| 2026-05-05 23:11 | 35.06301 | -116.33572 | 36856 ft | 502 kts | 62° |
| 2026-05-05 23:11 | 35.09444 | -116.26022 | 36854 ft | 501 kts | 62° |
| 2026-05-05 23:12 | 35.12583 | -116.18427 | 36858 ft | 501 kts | 63° |
| 2026-05-05 23:12 | 35.15723 | -116.10834 | 36870 ft | 501 kts | 63° |
| 2026-05-05 23:13 | 35.18858 | -116.03234 | 36867 ft | 501 kts | 63° |
| 2026-05-05 23:13 | 35.21986 | -115.95625 | 36879 ft | 501 kts | 63° |
| 2026-05-05 23:14 | 35.25116 | -115.87991 | 36887 ft | 504 kts | 63° |
| 2026-05-05 23:14 | 35.28263 | -115.80302 | 36895 ft | 507 kts | 63° |
| 2026-05-05 23:15 | 35.31425 | -115.72563 | 36898 ft | 510 kts | 63° |
| 2026-05-05 23:15 | 35.34592 | -115.64791 | 36917 ft | 509 kts | 63° |
| 2026-05-05 23:16 | 35.37707 | -115.57120 | 36897 ft | 499 kts | 63° |
| 2026-05-05 23:16 | 35.40797 | -115.49518 | 36907 ft | 499 kts | 63° |
| 2026-05-05 23:17 | 35.43887 | -115.41887 | 36906 ft | 500 kts | 63° |
| 2026-05-05 23:17 | 35.46970 | -115.34245 | 36907 ft | 500 kts | 63° |
| 2026-05-05 23:18 | 35.50055 | -115.26580 | 36894 ft | 501 kts | 64° |
| 2026-05-05 23:18 | 35.53142 | -115.18896 | 36896 ft | 502 kts | 64° |
| 2026-05-05 23:19 | 35.56231 | -115.11191 | 36886 ft | 503 kts | 64° |
| 2026-05-05 23:19 | 35.59317 | -115.03477 | 36892 ft | 503 kts | 64° |
| 2026-05-05 23:20 | 35.62399 | -114.95752 | 36869 ft | 503 kts | 64° |
| 2026-05-05 23:20 | 35.65453 | -114.88080 | 36878 ft | 503 kts | 64° |
| 2026-05-05 23:21 | 35.68525 | -114.80345 | 36870 ft | 503 kts | 64° |
| 2026-05-05 23:21 | 35.71588 | -114.72613 | 36857 ft | 503 kts | 64° |
| 2026-05-05 23:22 | 35.74646 | -114.64877 | 36861 ft | 503 kts | 64° |
| 2026-05-05 23:22 | 35.77699 | -114.57135 | 36785 ft | 503 kts | 64° |
| 2026-05-05 23:23 | 35.80252 | -114.50644 | 36780 ft | 502 kts | 64° |
| 2026-05-05 23:23 | 35.83295 | -114.42893 | 36782 ft | 502 kts | 64° |
| 2026-05-05 23:24 | 35.86313 | -114.35188 | 36774 ft | 503 kts | 64° |
| 2026-05-05 23:24 | 35.89353 | -114.27407 | 36785 ft | 504 kts | 64° |
| 2026-05-05 23:25 | 35.92396 | -114.19597 | 36793 ft | 506 kts | 64° |
| 2026-05-05 23:25 | 35.95443 | -114.11761 | 36799 ft | 507 kts | 64° |
| 2026-05-05 23:26 | 35.98496 | -114.03889 | 36786 ft | 508 kts | 64° |
| 2026-05-05 23:26 | 36.01698 | -113.96103 | 36810 ft | 509 kts | 61° |
| 2026-05-05 23:27 | 36.05187 | -113.88489 | 36790 ft | 509 kts | 60° |
| 2026-05-05 23:27 | 36.08700 | -113.80899 | 36809 ft | 509 kts | 60° |
| 2026-05-05 23:28 | 36.12186 | -113.73287 | 36813 ft | 509 kts | 60° |
| 2026-05-05 23:28 | 36.15654 | -113.65646 | 36812 ft | 509 kts | 61° |
| 2026-05-05 23:29 | 36.19111 | -113.58001 | 36828 ft | 509 kts | 61° |
| 2026-05-05 23:29 | 36.22570 | -113.50338 | 36825 ft | 510 kts | 61° |
| 2026-05-05 23:30 | 36.26000 | -113.42723 | 36824 ft | 510 kts | 61° |
| 2026-05-05 23:30 | 36.29455 | -113.35037 | 36842 ft | 511 kts | 61° |
| 2026-05-05 23:31 | 36.32904 | -113.27346 | 36832 ft | 510 kts | 61° |
| 2026-05-05 23:31 | 36.36341 | -113.19664 | 36827 ft | 509 kts | 61° |
| 2026-05-05 23:32 | 36.39763 | -113.11997 | 36826 ft | 507 kts | 61° |
| 2026-05-05 23:32 | 36.43173 | -113.04342 | 36825 ft | 507 kts | 61° |
| 2026-05-05 23:33 | 36.46584 | -112.96664 | 36822 ft | 508 kts | 61° |
| 2026-05-05 23:33 | 36.49996 | -112.88967 | 36812 ft | 509 kts | 61° |
| 2026-05-05 23:34 | 36.53385 | -112.81305 | 36791 ft | 497 kts | 61° |
| 2026-05-05 23:34 | 36.56685 | -112.73825 | 36795 ft | 492 kts | 62° |
| 2026-05-05 23:35 | 36.59981 | -112.66340 | 36803 ft | 495 kts | 62° |
| 2026-05-05 23:35 | 36.63287 | -112.58812 | 36808 ft | 496 kts | 62° |
| 2026-05-05 23:36 | 36.66599 | -112.51254 | 36799 ft | 498 kts | 62° |
| 2026-05-05 23:36 | 36.69911 | -112.43680 | 36795 ft | 498 kts | 62° |
| 2026-05-05 23:37 | 36.73215 | -112.36104 | 36810 ft | 497 kts | 62° |
| 2026-05-05 23:37 | 36.76509 | -112.28536 | 36794 ft | 496 kts | 62° |
| 2026-05-05 23:38 | 36.79764 | -112.21040 | 36790 ft | 494 kts | 62° |
| 2026-05-05 23:38 | 36.83044 | -112.13468 | 36765 ft | 492 kts | 62° |
| 2026-05-05 23:39 | 36.86289 | -112.05962 | 36749 ft | 491 kts | 62° |
| 2026-05-05 23:39 | 36.89523 | -111.98460 | 36750 ft | 490 kts | 62° |
| 2026-05-05 23:40 | 36.92754 | -111.90950 | 36736 ft | 491 kts | 62° |
| 2026-05-05 23:40 | 36.95962 | -111.83477 | 36734 ft | 492 kts | 62° |
| 2026-05-05 23:41 | 36.99193 | -111.75933 | 36698 ft | 493 kts | 62° |
| 2026-05-05 23:41 | 37.02430 | -111.68356 | 36712 ft | 495 kts | 62° |
| 2026-05-05 23:42 | 37.05674 | -111.60740 | 36712 ft | 496 kts | 62° |
| 2026-05-05 23:42 | 37.08925 | -111.53097 | 36787 ft | 498 kts | 62° |
| 2026-05-05 23:43 | 37.12178 | -111.45431 | 36776 ft | 499 kts | 62° |
| 2026-05-05 23:43 | 37.15428 | -111.37752 | 36756 ft | 497 kts | 62° |
| 2026-05-05 23:44 | 37.18652 | -111.30113 | 36724 ft | 494 kts | 62° |
| 2026-05-05 23:44 | 37.21850 | -111.22522 | 36686 ft | 491 kts | 62° |
| 2026-05-05 23:45 | 37.24947 | -111.14910 | 36678 ft | 489 kts | 63° |
| 2026-05-05 23:45 | 37.27962 | -111.07273 | 36674 ft | 488 kts | 64° |
| 2026-05-05 23:46 | 37.30976 | -110.99635 | 36680 ft | 489 kts | 64° |
| 2026-05-05 23:46 | 37.34007 | -110.91976 | 36678 ft | 491 kts | 64° |
| 2026-05-05 23:47 | 37.37052 | -110.84279 | 36672 ft | 493 kts | 64° |
| 2026-05-05 23:47 | 37.40084 | -110.76599 | 36658 ft | 495 kts | 64° |
| 2026-05-05 23:48 | 37.43142 | -110.68828 | 36669 ft | 497 kts | 64° |
| 2026-05-05 23:48 | 37.46209 | -110.61021 | 36666 ft | 498 kts | 64° |
| 2026-05-05 23:49 | 37.49276 | -110.53188 | 36670 ft | 499 kts | 64° |
| 2026-05-05 23:49 | 37.52340 | -110.45344 | 36673 ft | 499 kts | 64° |
| 2026-05-05 23:50 | 37.55401 | -110.37489 | 36692 ft | 499 kts | 64° |
| 2026-05-05 23:50 | 37.58447 | -110.29657 | 36699 ft | 495 kts | 64° |
| 2026-05-05 23:51 | 37.61468 | -110.21876 | 36695 ft | 493 kts | 64° |
| 2026-05-05 23:51 | 37.64465 | -110.14119 | 36694 ft | 491 kts | 64° |
| 2026-05-05 23:52 | 37.67448 | -110.06383 | 36707 ft | 491 kts | 64° |
| 2026-05-05 23:52 | 37.70434 | -109.98622 | 36714 ft | 492 kts | 64° |
| 2026-05-05 23:53 | 37.73428 | -109.90823 | 36719 ft | 494 kts | 64° |
| 2026-05-05 23:53 | 37.76425 | -109.82996 | 36713 ft | 496 kts | 64° |
| 2026-05-05 23:54 | 37.79428 | -109.75130 | 36706 ft | 498 kts | 64° |
| 2026-05-05 23:54 | 37.82441 | -109.67224 | 36746 ft | 500 kts | 64° |
| 2026-05-05 23:55 | 37.85460 | -109.59278 | 36744 ft | 501 kts | 64° |
| 2026-05-05 23:55 | 37.88475 | -109.51321 | 36736 ft | 501 kts | 64° |
| 2026-05-05 23:56 | 37.91485 | -109.43361 | 36708 ft | 502 kts | 64° |
| 2026-05-05 23:56 | 37.94494 | -109.35376 | 36702 ft | 503 kts | 64° |
| 2026-05-05 23:57 | 37.97504 | -109.27373 | 36715 ft | 503 kts | 64° |
| 2026-05-05 23:57 | 38.00486 | -109.19428 | 36689 ft | 501 kts | 64° |
| 2026-05-05 23:58 | 38.03459 | -109.11475 | 36683 ft | 497 kts | 64° |
| 2026-05-05 23:58 | 38.06414 | -109.03553 | 36684 ft | 496 kts | 64° |
| 2026-05-05 23:59 | 38.09364 | -108.95628 | 36678 ft | 497 kts | 64° |
| 2026-05-05 23:59 | 38.12383 | -108.87714 | 36683 ft | 499 kts | 63° |
| 2026-05-06 00:00 | 38.15512 | -108.79831 | 36665 ft | 501 kts | 63° |
| 2026-05-06 00:00 | 38.18649 | -108.71906 | 36653 ft | 503 kts | 63° |
| 2026-05-06 00:01 | 38.21780 | -108.63928 | 36666 ft | 506 kts | 63° |
| 2026-05-06 00:01 | 38.24915 | -108.55898 | 36683 ft | 508 kts | 63° |
| 2026-05-06 00:02 | 38.28052 | -108.47833 | 36672 ft | 509 kts | 63° |
| 2026-05-06 00:02 | 38.31188 | -108.39751 | 36659 ft | 510 kts | 63° |
| 2026-05-06 00:03 | 38.34330 | -108.31638 | 36674 ft | 512 kts | 63° |
| 2026-05-06 00:03 | 38.37473 | -108.23501 | 36669 ft | 511 kts | 63° |
| 2026-05-06 00:04 | 38.40588 | -108.15418 | 36733 ft | 506 kts | 63° |
| 2026-05-06 00:04 | 38.43665 | -108.07404 | 36766 ft | 501 kts | 63° |
| 2026-05-06 00:05 | 38.48228 | -107.95457 | 36817 ft | 498 kts | 64° |
| 2026-05-06 00:06 | 38.51237 | -107.87481 | 36819 ft | 499 kts | 64° |
| 2026-05-06 00:06 | 38.54248 | -107.79479 | 36652 ft | 501 kts | 64° |
| 2026-05-06 00:07 | 38.57270 | -107.71439 | 36660 ft | 503 kts | 64° |
| 2026-05-06 00:07 | 38.60269 | -107.63327 | 36618 ft | 506 kts | 65° |
| 2026-05-06 00:08 | 38.63086 | -107.55049 | 36626 ft | 507 kts | 65° |
| 2026-05-06 00:08 | 38.66306 | -107.47023 | 36660 ft | 508 kts | 62° |
| 2026-05-06 00:09 | 38.68968 | -107.40316 | 36675 ft | 509 kts | 63° |
| 2026-05-06 00:09 | 38.72579 | -107.30810 | 36685 ft | 512 kts | 64° |
| 2026-05-06 00:09 | 38.74117 | -107.26706 | 36786 ft | 509 kts | 64° |
| 2026-05-06 00:10 | 38.75150 | -107.23945 | 36712 ft | 508 kts | 64° |
| 2026-05-06 00:10 | 38.78172 | -107.15888 | 36689 ft | 502 kts | 63° |
| 2026-05-06 00:11 | 38.81185 | -107.07853 | 36679 ft | 499 kts | 64° |
| 2026-05-06 00:11 | 38.84198 | -106.99800 | 36697 ft | 507 kts | 63° |
| 2026-05-06 00:12 | 38.87274 | -106.91560 | 36706 ft | 514 kts | 64° |
| 2026-05-06 00:12 | 38.90347 | -106.83294 | 36705 ft | 510 kts | 64° |
| 2026-05-06 00:12 | 38.91851 | -106.79240 | 36316 ft | 495 kts | 64° |
| 2026-05-06 00:13 | 38.93329 | -106.75256 | 35648 ft | 496 kts | 64° |
| 2026-05-06 00:13 | 38.94802 | -106.71276 | 35184 ft | 491 kts | 64° |
| 2026-05-06 00:13 | 38.96271 | -106.67306 | 34778 ft | 494 kts | 64° |
| 2026-05-06 00:13 | 38.97747 | -106.63311 | 34517 ft | 494 kts | 64° |
| 2026-05-06 00:14 | 38.99213 | -106.59337 | 34448 ft | 489 kts | 64° |
| 2026-05-06 00:14 | 39.02098 | -106.51483 | 34246 ft | 483 kts | 64° |
| 2026-05-06 00:14 | 39.03523 | -106.47585 | 33776 ft | 482 kts | 64° |
| 2026-05-06 00:15 | 39.04945 | -106.43691 | 33246 ft | 479 kts | 64° |
| 2026-05-06 00:15 | 39.06361 | -106.39807 | 32782 ft | 480 kts | 64° |
| 2026-05-06 00:15 | 39.07776 | -106.35923 | 32450 ft | 481 kts | 64° |
| 2026-05-06 00:15 | 39.09207 | -106.31993 | 31869 ft | 487 kts | 64° |
| 2026-05-06 00:16 | 39.10645 | -106.28037 | 31296 ft | 486 kts | 63° |
| 2026-05-06 00:16 | 39.12068 | -106.24119 | 30705 ft | 479 kts | 63° |
| 2026-05-06 00:16 | 39.13456 | -106.20291 | 30017 ft | 466 kts | 63° |
| 2026-05-06 00:16 | 39.14809 | -106.16552 | 29144 ft | 455 kts | 63° |
| 2026-05-06 00:17 | 39.16136 | -106.12877 | 28290 ft | 453 kts | 63° |
| 2026-05-06 00:17 | 39.17459 | -106.09202 | 27682 ft | 450 kts | 63° |
| 2026-05-06 00:17 | 39.18772 | -106.05549 | 27066 ft | 448 kts | 63° |
| 2026-05-06 00:17 | 39.20078 | -106.01908 | 26434 ft | 447 kts | 63° |
| 2026-05-06 00:18 | 39.21380 | -105.98277 | 25837 ft | 446 kts | 63° |
| 2026-05-06 00:18 | 39.22678 | -105.94651 | 25213 ft | 445 kts | 63° |
| 2026-05-06 00:18 | 39.23973 | -105.91034 | 24616 ft | 444 kts | 63° |
| 2026-05-06 00:18 | 39.25265 | -105.87439 | 24173 ft | 439 kts | 63° |
| 2026-05-06 00:19 | 39.26547 | -105.83883 | 23749 ft | 435 kts | 63° |
| 2026-05-06 00:19 | 39.27819 | -105.80357 | 23328 ft | 433 kts | 63° |
| 2026-05-06 00:19 | 39.29099 | -105.76800 | 22903 ft | 439 kts | 64° |
| 2026-05-06 00:19 | 39.30384 | -105.73228 | 22606 ft | 440 kts | 64° |
| 2026-05-06 00:20 | 39.31657 | -105.69677 | 22295 ft | 427 kts | 64° |
| 2026-05-06 00:20 | 39.32884 | -105.66253 | 21691 ft | 415 kts | 63° |
| 2026-05-06 00:20 | 39.34097 | -105.62916 | 21193 ft | 404 kts | 63° |
| 2026-05-06 00:20 | 39.35292 | -105.59653 | 20764 ft | 405 kts | 63° |
| 2026-05-06 00:21 | 39.36511 | -105.56329 | 20326 ft | 414 kts | 63° |
| 2026-05-06 00:21 | 39.37749 | -105.52943 | 19887 ft | 416 kts | 63° |
| 2026-05-06 00:21 | 39.38972 | -105.49584 | 19484 ft | 410 kts | 63° |
| 2026-05-06 00:21 | 39.40177 | -105.46265 | 19042 ft | 405 kts | 63° |
| 2026-05-06 00:22 | 39.41328 | -105.42965 | 18634 ft | 401 kts | 69° |
| 2026-05-06 00:22 | 39.41841 | -105.39461 | 18323 ft | 393 kts | 91° |
| 2026-05-06 00:22 | 39.41785 | -105.35966 | 18015 ft | 384 kts | 92° |
| 2026-05-06 00:22 | 39.41759 | -105.32552 | 17561 ft | 375 kts | 91° |
| 2026-05-06 00:23 | 39.41760 | -105.29216 | 17024 ft | 367 kts | 91° |
| 2026-05-06 00:23 | 39.41771 | -105.25966 | 16597 ft | 356 kts | 90° |
| 2026-05-06 00:23 | 39.41784 | -105.22747 | 16245 ft | 363 kts | 90° |
| 2026-05-06 00:23 | 39.41800 | -105.19468 | 15868 ft | 365 kts | 90° |
| 2026-05-06 00:24 | 39.41815 | -105.16232 | 15500 ft | 365 kts | 90° |
| 2026-05-06 00:24 | 39.41830 | -105.12907 | 15103 ft | 365 kts | 90° |
| 2026-05-06 00:24 | 39.41844 | -105.09692 | 14784 ft | 362 kts | 90° |
| 2026-05-06 00:24 | 39.41857 | -105.06441 | 14435 ft | 360 kts | 90° |
| 2026-05-06 00:25 | 39.41869 | -105.03212 | 14115 ft | 357 kts | 90° |
| 2026-05-06 00:25 | 39.41880 | -105.00031 | 13894 ft | 342 kts | 90° |
| 2026-05-06 00:25 | 39.41889 | -104.97036 | 13770 ft | 323 kts | 90° |
| 2026-05-06 00:25 | 39.41903 | -104.94254 | 13632 ft | 304 kts | 89° |
| 2026-05-06 00:26 | 39.42073 | -104.91574 | 13484 ft | 299 kts | 83° |
| 2026-05-06 00:26 | 39.42334 | -104.88912 | 13353 ft | 297 kts | 83° |
| 2026-05-06 00:26 | 39.42591 | -104.86265 | 13053 ft | 296 kts | 83° |
| 2026-05-06 00:26 | 39.42842 | -104.83625 | 12740 ft | 295 kts | 84° |
| 2026-05-06 00:27 | 39.43080 | -104.81004 | 12424 ft | 290 kts | 84° |
| 2026-05-06 00:27 | 39.43307 | -104.78447 | 12052 ft | 283 kts | 84° |
| 2026-05-06 00:27 | 39.43562 | -104.75956 | 11665 ft | 277 kts | 78° |
| 2026-05-06 00:27 | 39.44151 | -104.73615 | 11299 ft | 271 kts | 68° |
| 2026-05-06 00:28 | 39.45196 | -104.71664 | 10974 ft | 261 kts | 36° |
| 2026-05-06 00:28 | 39.46774 | -104.70553 | 11009 ft | 267 kts | 26° |
| 2026-05-06 00:28 | 39.48453 | -104.69490 | 10979 ft | 267 kts | 22° |
| 2026-05-06 00:28 | 39.50234 | -104.69000 | 10785 ft | 262 kts | 359° |
| 2026-05-06 00:29 | 39.52056 | -104.69042 | 10638 ft | 262 kts | 359° |
| 2026-05-06 00:29 | 39.53873 | -104.69061 | 10531 ft | 261 kts | 360° |
| 2026-05-06 00:29 | 39.55684 | -104.69060 | 10442 ft | 259 kts | 360° |
| 2026-05-06 00:29 | 39.57476 | -104.69049 | 10350 ft | 257 kts | 0° |
| 2026-05-06 00:30 | 39.59264 | -104.69034 | 10240 ft | 256 kts | 0° |
| 2026-05-06 00:30 | 39.61029 | -104.69016 | 10173 ft | 253 kts | 1° |
| 2026-05-06 00:30 | 39.62788 | -104.68995 | 10044 ft | 253 kts | 1° |
| 2026-05-06 00:30 | 39.64548 | -104.68975 | 9765 ft | 254 kts | 1° |
| 2026-05-06 00:31 | 39.66317 | -104.68955 | 9416 ft | 254 kts | 2° |
| 2026-05-06 00:31 | 39.68083 | -104.68933 | 9076 ft | 253 kts | 2° |
| 2026-05-06 00:31 | 39.69813 | -104.68913 | 8692 ft | 243 kts | 2° |
| 2026-05-06 00:31 | 39.71458 | -104.68896 | 8374 ft | 230 kts | 2° |
| 2026-05-06 00:32 | 39.73001 | -104.68879 | 8128 ft | 214 kts | 3° |
| 2026-05-06 00:32 | 39.74438 | -104.68861 | 7822 ft | 199 kts | 2° |
| 2026-05-06 00:32 | 39.75766 | -104.68846 | 7547 ft | 183 kts | 4° |
| 2026-05-06 00:32 | 39.76966 | -104.68833 | 7303 ft | 161 kts | 4° |
| 2026-05-06 00:33 | 39.78034 | -104.68818 | 7120 ft | 151 kts | 4° |
| 2026-05-06 00:33 | 39.79098 | -104.68803 | 6944 ft | 154 kts | 5° |
| 2026-05-06 00:33 | 39.80172 | -104.68791 | 6736 ft | 153 kts | 4° |
| 2026-05-06 00:33 | 39.81225 | -104.68780 | 6508 ft | 148 kts | 3° |
| 2026-05-06 00:34 | 39.82238 | -104.68768 | 6287 ft | 148 kts | 4° |
| 2026-05-06 00:34 | 39.83265 | -104.68755 | 6038 ft | 147 kts | 3° |
| 2026-05-06 00:34 | 39.84274 | -104.68745 | 5826 ft | 143 kts | 2° |
| 2026-05-06 00:34 | 39.85262 | -104.68735 | 5626 ft | 142 kts | 2° |
| 2026-05-06 00:35 | 39.86261 | -104.68725 | 5448 ft | 144 kts | 2° |
| 2026-05-06 00:35 | 39.87237 | -104.68721 | 5370 ft | 129 kts | 5° |
| 2026-05-06 00:35 | 39.88023 | -104.68703 | 5364 ft | 92 kts | 0° |
| 2026-05-06 00:35 | 39.88511 | -104.68694 | 5364 ft | 48 kts | 1° |
| 2026-05-06 00:36 | 39.88717 | -104.68664 | 5363 ft | 23 kts | 16° |
| 2026-05-06 00:36 | 39.88859 | -104.68590 | 5361 ft | 12 kts | 28° |
| 2026-05-06 00:36 | 39.88880 | -104.68504 | 5363 ft | 11 kts | 121° |
| 2026-05-06 00:36 | 39.88806 | -104.68476 | 5363 ft | 12 kts | 179° |
| 2026-05-06 00:37 | 39.88725 | -104.68476 | 5366 ft | 12 kts | 182° |
| 2026-05-06 00:37 | 39.88644 | -104.68478 | 5363 ft | 12 kts | 180° |
| 2026-05-06 00:37 | 39.88563 | -104.68479 | 5363 ft | 12 kts | 180° |
| 2026-05-06 00:37 | 39.88479 | -104.68480 | 5364 ft | 12 kts | 180° |
| 2026-05-06 00:38 | 39.88393 | -104.68482 | 5364 ft | 12 kts | 180° |
| 2026-05-06 00:38 | 39.88307 | -104.68483 | 5364 ft | 12 kts | 181° |
| 2026-05-06 00:38 | 39.88221 | -104.68485 | 5364 ft | 12 kts | 181° |
| 2026-05-06 00:38 | 39.88134 | -104.68484 | 5363 ft | 14 kts | 178° |
| 2026-05-06 00:39 | 39.88023 | -104.68483 | 5364 ft | 17 kts | 182° |
| 2026-05-06 00:39 | 39.87905 | -104.68487 | 5365 ft | 17 kts | 181° |
| 2026-05-06 00:39 | 39.87785 | -104.68490 | 5364 ft | 17 kts | 181° |
| 2026-05-06 00:39 | 39.87668 | -104.68491 | 5364 ft | 17 kts | 180° |
| 2026-05-06 00:40 | 39.87550 | -104.68491 | 5364 ft | 17 kts | 180° |
| 2026-05-06 00:40 | 39.87432 | -104.68492 | 5364 ft | 17 kts | 181° |
| 2026-05-06 00:40 | 39.87314 | -104.68494 | 5364 ft | 17 kts | 180° |
| 2026-05-06 00:40 | 39.87195 | -104.68496 | 5364 ft | 17 kts | 181° |
| 2026-05-06 00:41 | 39.87077 | -104.68498 | 5365 ft | 17 kts | 180° |
| 2026-05-06 00:41 | 39.86959 | -104.68498 | 5364 ft | 17 kts | 180° |
| 2026-05-06 00:41 | 39.86841 | -104.68499 | 5365 ft | 17 kts | 181° |
| 2026-05-06 00:41 | 39.86723 | -104.68501 | 5365 ft | 17 kts | 180° |
| 2026-05-06 00:42 | 39.86601 | -104.68499 | 5365 ft | 18 kts | 179° |
| 2026-05-06 00:42 | 39.86479 | -104.68504 | 5365 ft | 17 kts | 181° |
| 2026-05-06 00:42 | 39.86358 | -104.68506 | 5366 ft | 17 kts | 180° |
| 2026-05-06 00:42 | 39.86237 | -104.68506 | 5369 ft | 16 kts | 180° |
| 2026-05-06 00:43 | 39.86150 | -104.68506 | 5371 ft | 12 kts | 180° |
| 2026-05-06 00:43 | 39.86048 | -104.68508 | 5372 ft | 15 kts | 181° |
| 2026-05-06 00:43 | 39.85942 | -104.68511 | 5373 ft | 15 kts | 180° |
| 2026-05-06 00:43 | 39.85835 | -104.68511 | 5373 ft | 15 kts | 180° |
| 2026-05-06 00:44 | 39.85737 | -104.68507 | 5372 ft | 12 kts | 166° |
| 2026-05-06 00:44 | 39.85694 | -104.68450 | 5373 ft | 8 kts | 109° |
| 2026-05-06 00:44 | 39.85687 | -104.68339 | 5377 ft | 15 kts | 90° |
| 2026-05-06 00:44 | 39.85680 | -104.68202 | 5381 ft | 15 kts | 102° |
| 2026-05-06 00:45 | 39.85670 | -104.68065 | 5386 ft | 15 kts | 91° |
| 2026-05-06 00:45 | 39.85668 | -104.67927 | 5385 ft | 15 kts | 91° |
| 2026-05-06 00:45 | 39.85668 | -104.67789 | 5386 ft | 15 kts | 90° |
| 2026-05-06 00:45 | 39.85666 | -104.67651 | 5382 ft | 15 kts | 91° |
| 2026-05-06 00:46 | 39.85668 | -104.67533 | 5386 ft | 13 kts | 88° |
| 2026-05-06 00:46 | 39.85669 | -104.67417 | 5386 ft | 13 kts | 91° |
| 2026-05-06 00:46 | 39.85667 | -104.67303 | 5386 ft | 12 kts | 92° |
| 2026-05-06 00:46 | 39.85680 | -104.67234 | 5380 ft | 7 kts | 52° |
| 2026-05-06 00:47 | 39.85726 | -104.67206 | 5382 ft | 8 kts | 9° |
| 2026-05-06 00:47 | 39.85778 | -104.67206 | 5379 ft | 7 kts | 0° |
| 2026-05-06 00:47 | 39.85794 | -104.67205 | 5382 ft | 1 kts | 1° |
| 2026-05-06 00:47 | 39.85802 | -104.67205 | 5382 ft | 1 kts | 1° |
| 2026-05-06 00:48 | 39.85806 | -104.67205 | 5377 ft | 0 kts | 0° |
| 2026-05-06 00:48 | 39.85809 | -104.67205 | 5383 ft | 0 kts | 0° |
| 2026-05-06 00:48 | 39.85813 | -104.67205 | 5383 ft | 1 kts | 0° |
| 2026-05-06 00:48 | 39.85814 | -104.67205 | 5383 ft | 0 kts | 0° |